createdAt,value
2018-09-24T00:00:34.240Z,7.75
2018-09-24T00:01:14.572Z,8.15
2018-09-24T00:01:54.643Z,7.62
2018-09-24T00:02:34.857Z,7.90
2018-09-24T00:03:15.089Z,8.48
2018-09-24T00:03:55.537Z,8.43
2018-09-24T00:04:35.665Z,8.20
2018-09-24T00:05:15.990Z,8.23
2018-09-24T00:05:56.004Z,7.70
2018-09-24T00:06:36.420Z,7.83
2018-09-24T00:07:16.710Z,8.08
2018-09-24T00:07:57.101Z,8.30
2018-09-24T00:08:37.508Z,7.53
2018-09-24T00:09:17.871Z,8.30
2018-09-24T00:09:58.152Z,7.80
2018-09-24T00:10:38.524Z,8.55
2018-09-24T00:11:19.011Z,8.58
2018-09-24T00:11:58.914Z,8.58
2018-09-24T00:12:39.256Z,8.60
2018-09-24T00:13:19.472Z,8.43
2018-09-24T00:13:59.974Z,8.70
2018-09-24T00:14:40.232Z,8.68
2018-09-24T00:15:20.505Z,8.38
2018-09-24T00:16:00.845Z,8.78
2018-09-24T00:16:41.029Z,8.70
2018-09-24T00:17:21.262Z,9.30
2018-09-24T00:18:01.293Z,8.60
2018-09-24T00:18:41.495Z,8.50
2018-09-24T00:19:22.400Z,9.20
2018-09-24T00:20:02.723Z,8.90
2018-09-24T00:20:42.902Z,8.85
2018-09-24T00:21:23.260Z,7.65
2018-09-24T00:22:03.494Z,8.83
2018-09-24T00:22:43.735Z,8.85
2018-09-24T00:23:23.961Z,8.25
2018-09-24T00:24:04.147Z,8.58
2018-09-24T00:24:44.292Z,8.75
2018-09-24T00:25:24.418Z,8.28
2018-09-24T00:26:04.765Z,8.70
2018-09-24T00:26:44.749Z,8.08
2018-09-24T00:27:25.028Z,8.38
2018-09-24T00:28:05.555Z,9.33
2018-09-24T00:28:46.023Z,8.75
2018-09-24T00:29:26.372Z,8.78
2018-09-24T00:30:06.625Z,8.95
2018-09-24T00:30:46.863Z,9.20
2018-09-24T00:31:27.106Z,9.30
2018-09-24T00:32:07.372Z,9.05
2018-09-24T00:32:47.667Z,8.88
2018-09-24T00:33:27.934Z,8.33
2018-09-24T00:34:08.237Z,9.03
2018-09-24T00:34:48.623Z,8.68
2018-09-24T00:35:28.741Z,9.53
2018-09-24T00:36:09.019Z,8.95
2018-09-24T00:36:49.175Z,8.63
2018-09-24T00:37:29.219Z,9.20
2018-09-24T00:38:09.906Z,8.33
2018-09-24T00:38:49.968Z,9.63
2018-09-24T00:39:30.181Z,9.28
2018-09-24T00:40:10.488Z,9.13
2018-09-24T00:40:50.456Z,8.55
2018-09-24T00:41:30.664Z,9.50
2018-09-24T00:42:10.861Z,8.70
2018-09-24T00:42:51.020Z,9.03
2018-09-24T00:43:31.485Z,9.55
2018-09-24T00:44:11.699Z,9.00
2018-09-24T00:44:52.032Z,8.50
2018-09-24T00:45:32.276Z,9.40
2018-09-24T00:46:12.385Z,8.98
2018-09-24T00:46:52.605Z,9.00
2018-09-24T00:47:33.042Z,9.43
2018-09-24T00:48:13.097Z,9.15
2018-09-24T00:48:53.359Z,9.50
2018-09-24T00:49:33.683Z,8.43
2018-09-24T00:50:14.127Z,8.90
2018-09-24T00:50:54.297Z,8.90
2018-09-24T00:51:34.484Z,8.80
2018-09-24T00:52:14.993Z,8.75
2018-09-24T00:52:55.157Z,9.88
2018-09-24T00:53:35.269Z,9.80
2018-09-24T00:54:15.496Z,10.35
2018-09-24T00:54:55.625Z,10.00
2018-09-24T00:55:36.065Z,10.90
2018-09-24T00:56:16.114Z,9.60
2018-09-24T00:56:56.325Z,9.28
2018-09-24T00:57:36.571Z,10.48
2018-09-24T00:58:16.810Z,10.60
2018-09-24T00:58:56.972Z,9.73
2018-09-24T00:59:37.218Z,9.30
2018-09-24T01:00:17.472Z,9.53
2018-09-24T01:00:57.612Z,10.60
2018-09-24T01:01:37.731Z,10.20
2018-09-24T01:02:17.822Z,9.58
2018-09-24T01:02:57.992Z,9.73
2018-09-24T01:03:38.262Z,9.78
2018-09-24T01:04:18.504Z,10.13
2018-09-24T01:04:58.769Z,9.50
2018-09-24T01:05:38.867Z,10.38
2018-09-24T01:06:19.020Z,9.53
2018-09-24T01:06:59.181Z,9.98
2018-09-24T01:07:39.355Z,9.18
2018-09-24T01:08:19.583Z,9.60
2018-09-24T01:08:59.683Z,9.75
2018-09-24T01:09:39.867Z,9.30
2018-09-24T01:10:20.036Z,10.20
2018-09-24T01:11:00.122Z,9.75
2018-09-24T01:11:40.781Z,9.38
2018-09-24T01:12:20.933Z,9.43
2018-09-24T01:13:01.289Z,9.33
2018-09-24T01:13:41.599Z,9.10
2018-09-24T01:14:21.897Z,9.55
2018-09-24T01:15:02.094Z,9.30
2018-09-24T01:15:42.431Z,9.68
2018-09-24T01:16:22.691Z,9.53
2018-09-24T01:17:02.931Z,9.93
2018-09-24T01:17:43.424Z,9.08
2018-09-24T01:18:23.375Z,8.85
2018-09-24T01:19:03.570Z,8.85
2018-09-24T01:19:43.839Z,9.43
2018-09-24T01:20:24.160Z,9.85
2018-09-24T01:21:04.396Z,10.28
2018-09-24T01:21:44.605Z,9.75
2018-09-24T01:22:25.035Z,9.70
2018-09-24T01:23:05.254Z,9.80
2018-09-24T01:23:45.476Z,9.88
2018-09-24T01:24:25.449Z,9.70
2018-09-24T01:25:06.301Z,9.05
2018-09-24T01:25:46.287Z,9.55
2018-09-24T01:26:26.655Z,9.63
2018-09-24T01:27:07.186Z,10.25
2018-09-24T01:27:47.288Z,9.20
2018-09-24T01:28:27.479Z,9.50
2018-09-24T01:29:08.069Z,10.00
2018-09-24T01:29:48.385Z,9.38
2018-09-24T01:30:28.608Z,10.28
2018-09-24T01:31:08.761Z,10.03
2018-09-24T01:31:49.119Z,9.55
2018-09-24T01:32:29.708Z,10.50
2018-09-24T01:33:09.692Z,10.25
2018-09-24T01:33:49.764Z,10.53
2018-09-24T01:34:30.098Z,10.68
2018-09-24T01:35:10.193Z,10.63
2018-09-24T01:35:50.216Z,10.23
2018-09-24T01:36:30.524Z,9.43
2018-09-24T01:37:10.773Z,10.58
2018-09-24T01:37:51.062Z,10.20
2018-09-24T01:38:31.456Z,9.80
2018-09-24T01:39:11.532Z,9.83
2018-09-24T01:39:52.749Z,9.68
2018-09-24T01:40:33.336Z,9.93
2018-09-24T01:41:13.435Z,10.72
2018-09-24T01:41:53.603Z,10.45
2018-09-24T01:42:33.895Z,10.00
2018-09-24T01:43:14.014Z,10.20
2018-09-24T01:43:54.484Z,11.10
2018-09-24T01:44:34.866Z,9.93
2018-09-24T01:45:15.298Z,10.38
2018-09-24T01:45:55.444Z,10.63
2018-09-24T01:46:35.748Z,9.98
2018-09-24T01:47:16.179Z,9.90
2018-09-24T01:47:56.496Z,10.82
2018-09-24T01:48:36.730Z,10.90
2018-09-24T01:49:17.099Z,9.93
2018-09-24T01:49:57.015Z,9.63
2018-09-24T01:50:37.291Z,9.98
2018-09-24T01:51:17.728Z,9.38
2018-09-24T01:51:57.999Z,10.10
2018-09-24T01:52:38.225Z,10.28
2018-09-24T01:53:18.637Z,9.90
2018-09-24T01:53:59.084Z,10.10
2018-09-24T01:54:39.124Z,9.90
2018-09-24T01:55:19.396Z,10.30
2018-09-24T01:55:59.820Z,10.08
2018-09-24T01:56:39.942Z,10.10
2018-09-24T01:57:20.336Z,10.28
2018-09-24T01:58:00.784Z,10.10
2018-09-24T01:58:41.157Z,10.80
2018-09-24T01:59:21.497Z,11.50
2018-09-24T02:00:01.785Z,9.73
2018-09-24T02:00:41.925Z,9.38
2018-09-24T02:01:22.282Z,9.53
2018-09-24T02:02:02.616Z,10.08
2018-09-24T02:02:42.652Z,9.90
2018-09-24T02:03:31.299Z,9.78
2018-09-24T02:04:11.361Z,10.82
2018-09-24T02:04:52.100Z,9.73
2018-09-24T02:05:32.142Z,9.30
2018-09-24T02:06:12.362Z,9.83
2018-09-24T02:06:59.921Z,9.60
2018-09-24T02:07:40.976Z,8.93
2018-09-24T02:08:21.227Z,9.18
2018-09-24T02:09:01.461Z,9.25
2018-09-24T02:09:41.601Z,9.20
2018-09-24T02:10:23.751Z,9.65
2018-09-24T02:11:03.922Z,9.70
2018-09-24T02:11:44.580Z,10.08
2018-09-24T02:12:24.851Z,9.55
2018-09-24T02:13:05.128Z,9.58
2018-09-24T02:13:49.246Z,9.20
2018-09-24T02:14:29.433Z,9.45
2018-09-24T02:15:09.683Z,9.70
2018-09-24T02:15:50.117Z,9.25
2018-09-24T02:16:30.119Z,9.50
2018-09-24T02:17:15.406Z,9.75
2018-09-24T02:17:55.630Z,9.30
2018-09-24T02:18:36.010Z,9.90
2018-09-24T02:19:16.236Z,9.58
2018-09-24T02:19:56.640Z,9.23
2018-09-24T02:20:44.511Z,9.80
2018-09-24T02:21:24.638Z,9.00
2018-09-24T02:22:04.800Z,8.93
2018-09-24T02:22:45.079Z,9.15
2018-09-24T02:23:25.409Z,8.60
2018-09-24T02:24:06.154Z,9.30
2018-09-24T02:24:46.200Z,8.98
2018-09-24T02:25:26.272Z,8.88
2018-09-24T02:26:06.465Z,8.83
2018-09-24T02:26:46.460Z,8.70
2018-09-24T02:27:26.987Z,8.25
2018-09-24T02:28:07.126Z,8.58
2018-09-24T02:28:47.336Z,9.00
2018-09-24T02:29:27.661Z,8.68
2018-09-24T02:30:11.166Z,9.53
2018-09-24T02:30:51.441Z,8.35
2018-09-24T02:31:39.289Z,8.10
2018-09-24T02:32:19.791Z,8.65
2018-09-24T02:32:59.950Z,8.43
2018-09-24T02:33:39.952Z,8.63
2018-09-24T02:34:25.959Z,8.20
2018-09-24T02:35:06.193Z,8.63
2018-09-24T02:35:47.684Z,8.73
2018-09-24T02:36:28.075Z,8.00
2018-09-24T02:37:08.429Z,8.63
2018-09-24T02:37:48.685Z,8.65
2018-09-24T02:38:29.034Z,8.15
2018-09-24T02:39:10.193Z,8.68
2018-09-24T02:39:50.359Z,8.25
2018-09-24T02:40:30.472Z,8.03
2018-09-24T02:41:10.829Z,7.70
2018-09-24T02:41:53.278Z,8.95
2018-09-24T02:42:33.492Z,8.28
2018-09-24T02:43:14.812Z,8.48
2018-09-24T02:43:54.784Z,8.25
2018-09-24T02:44:34.909Z,8.23
2018-09-24T02:45:15.029Z,8.58
2018-09-24T02:45:55.667Z,8.15
2018-09-24T02:46:41.802Z,8.70
2018-09-24T02:47:22.601Z,8.33
2018-09-24T02:48:02.716Z,8.30
2018-09-24T02:48:43.076Z,8.83
2018-09-24T02:49:23.196Z,7.85
2018-09-24T02:50:03.461Z,8.38
2018-09-24T02:50:43.653Z,8.25
2018-09-24T02:51:23.811Z,8.60
2018-09-24T02:52:04.690Z,7.95
2018-09-24T02:52:44.824Z,8.33
2018-09-24T02:53:25.024Z,8.63
2018-09-24T02:54:05.322Z,7.45
2018-09-24T02:54:45.853Z,7.45
2018-09-24T02:55:25.815Z,7.25
2018-09-24T02:56:06.475Z,8.25
2018-09-24T02:56:48.940Z,9.25
2018-09-24T02:57:29.462Z,7.33
2018-09-24T02:58:14.829Z,8.13
2018-09-24T02:58:54.853Z,7.53
2018-09-24T02:59:35.403Z,7.87
2018-09-24T03:00:20.612Z,7.25
2018-09-24T03:01:00.947Z,7.75
2018-09-24T03:01:41.098Z,7.10
2018-09-24T03:02:21.429Z,7.78
2018-09-24T03:03:08.278Z,7.28
2018-09-24T03:03:48.178Z,7.15
2018-09-24T03:04:28.176Z,6.97
2018-09-24T03:05:08.497Z,8.05
2018-09-24T03:05:48.720Z,7.20
2018-09-24T03:06:33.682Z,6.92
2018-09-24T03:07:14.138Z,7.05
2018-09-24T03:08:01.170Z,6.95
2018-09-24T03:08:41.183Z,6.75
2018-09-24T03:09:21.230Z,7.17
2018-09-24T03:10:01.814Z,6.97
2018-09-24T03:10:42.326Z,7.50
2018-09-24T03:11:22.305Z,7.40
2018-09-24T03:12:02.745Z,6.60
2018-09-24T03:12:48.281Z,7.08
2018-09-24T03:13:28.200Z,7.08
2018-09-24T03:14:08.889Z,6.78
2018-09-24T03:14:49.268Z,6.70
2018-09-24T03:15:37.618Z,6.47
2018-09-24T03:16:17.979Z,6.40
2018-09-24T03:16:57.990Z,6.67
2018-09-24T03:17:38.158Z,6.47
2018-09-24T03:18:18.459Z,6.55
2018-09-24T03:18:59.793Z,6.15
2018-09-24T03:19:39.767Z,6.65
2018-09-24T03:20:19.850Z,6.42
2018-09-24T03:21:00.061Z,7.22
2018-09-24T03:21:40.268Z,6.92
2018-09-24T03:22:23.300Z,6.08
2018-09-24T03:23:03.787Z,6.37
2018-09-24T03:23:44.276Z,6.20
2018-09-24T03:24:24.619Z,6.92
2018-09-24T03:25:05.468Z,7.37
2018-09-24T03:25:45.669Z,6.92
2018-09-24T03:26:26.256Z,6.97
2018-09-24T03:27:06.601Z,6.15
2018-09-24T03:27:46.791Z,6.33
2018-09-24T03:28:26.774Z,6.72
2018-09-24T03:29:07.090Z,6.95
2018-09-24T03:29:47.306Z,6.30
2018-09-24T03:30:42.603Z,6.15
2018-09-24T03:31:22.828Z,6.03
2018-09-24T03:32:03.111Z,6.40
2018-09-24T03:32:43.336Z,6.50
2018-09-24T03:33:23.488Z,6.25
2018-09-24T03:34:03.547Z,6.75
2018-09-24T03:34:43.666Z,6.65
2018-09-24T03:35:23.796Z,6.35
2018-09-24T03:36:03.969Z,6.25
2018-09-24T03:36:44.503Z,6.42
2018-09-24T03:37:24.761Z,6.28
2018-09-24T03:38:05.028Z,6.12
2018-09-24T03:38:45.249Z,6.28
2018-09-24T03:39:25.392Z,6.40
2018-09-24T03:40:05.670Z,6.15
2018-09-24T03:40:46.199Z,6.20
2018-09-24T03:41:26.203Z,6.20
2018-09-24T03:42:06.421Z,5.97
2018-09-24T03:42:46.456Z,6.20
2018-09-24T03:43:26.622Z,6.40
2018-09-24T03:44:07.336Z,6.37
2018-09-24T03:44:47.486Z,6.55
2018-09-24T03:45:28.692Z,6.47
2018-09-24T03:46:08.929Z,6.60
2018-09-24T03:46:48.861Z,6.45
2018-09-24T03:47:28.904Z,5.90
2018-09-24T03:48:09.181Z,6.22
2018-09-24T03:48:49.286Z,6.15
2018-09-24T03:49:29.503Z,5.95
2018-09-24T03:50:09.981Z,6.40
2018-09-24T03:50:50.181Z,5.75
2018-09-24T03:51:30.335Z,5.87
2018-09-24T03:52:10.518Z,7.03
2018-09-24T03:52:50.688Z,5.92
2018-09-24T03:53:30.882Z,6.35
2018-09-24T03:54:11.116Z,6.10
2018-09-24T03:54:51.244Z,6.22
2018-09-24T03:55:31.489Z,5.92
2018-09-24T03:56:11.903Z,6.12
2018-09-24T03:56:52.307Z,5.95
2018-09-24T03:57:32.525Z,6.37
2018-09-24T03:58:13.115Z,5.97
2018-09-24T03:58:53.187Z,6.08
2018-09-24T03:59:33.396Z,5.85
2018-09-24T04:00:13.670Z,6.12
2018-09-24T04:00:54.089Z,5.67
2018-09-24T04:01:34.434Z,5.53
2018-09-24T04:02:14.401Z,5.97
2018-09-24T04:02:54.578Z,5.65
2018-09-24T04:03:34.723Z,6.00
2018-09-24T04:04:20.541Z,5.75
2018-09-24T04:06:56.038Z,5.10
2018-09-24T04:07:41.756Z,4.90
2018-09-24T04:08:27.620Z,5.97
2018-09-24T04:09:13.914Z,5.35
2018-09-24T04:09:59.714Z,5.83
2018-09-24T04:10:45.392Z,5.62
2018-09-24T04:11:31.128Z,6.37
2018-09-24T04:12:17.223Z,6.03
2018-09-24T04:13:02.869Z,5.50
2018-09-24T04:13:49.065Z,5.08
2018-09-24T04:14:34.791Z,5.72
2018-09-24T04:15:20.412Z,5.65
2018-09-24T04:16:06.078Z,5.65
2018-09-24T04:16:51.805Z,5.47
2018-09-24T04:17:37.271Z,5.12
2018-09-24T04:18:23.083Z,5.10
2018-09-24T04:19:08.788Z,5.92
2018-09-24T04:19:54.468Z,6.00
2018-09-24T04:20:40.293Z,5.60
2018-09-24T04:21:25.973Z,5.67
2018-09-24T04:22:11.950Z,5.62
2018-09-24T04:22:57.751Z,5.22
2018-09-24T04:23:43.529Z,5.33
2018-09-24T04:24:29.266Z,5.58
2018-09-24T04:25:15.045Z,4.90
2018-09-24T04:26:00.903Z,4.90
2018-09-24T04:26:46.814Z,5.58
2018-09-24T04:27:32.573Z,5.30
2018-09-24T04:28:18.450Z,5.95
2018-09-24T04:29:04.246Z,5.60
2018-09-24T04:29:49.967Z,5.70
2018-09-24T04:30:35.779Z,5.08
2018-09-24T04:31:21.460Z,5.12
2018-09-24T04:32:07.136Z,5.10
2018-09-24T04:32:53.076Z,5.50
2018-09-24T04:33:39.096Z,5.35
2018-09-24T04:34:24.836Z,5.15
2018-09-24T04:35:11.252Z,5.00
2018-09-24T04:35:57.020Z,5.03
2018-09-24T04:36:42.706Z,4.65
2018-09-24T04:37:28.332Z,5.47
2018-09-24T04:38:14.007Z,5.45
2018-09-24T04:38:59.628Z,4.53
2018-09-24T04:39:45.663Z,5.37
2018-09-24T04:40:31.661Z,5.15
2018-09-24T04:41:17.547Z,5.58
2018-09-24T04:42:03.321Z,5.00
2018-09-24T04:42:49.297Z,4.08
2018-09-24T04:43:35.058Z,5.22
2018-09-24T04:44:20.688Z,5.70
2018-09-24T04:45:06.367Z,5.12
2018-09-24T04:45:52.666Z,5.55
2018-09-24T04:46:38.389Z,5.15
2018-09-24T04:47:24.344Z,5.67
2018-09-24T04:48:10.189Z,5.15
2018-09-24T04:48:55.982Z,5.42
2018-09-24T04:49:41.633Z,4.92
2018-09-24T04:50:27.373Z,5.55
2018-09-24T04:51:13.171Z,5.33
2018-09-24T04:51:59.041Z,5.10
2018-09-24T04:52:44.785Z,5.42
2018-09-24T04:53:30.443Z,5.75
2018-09-24T04:54:16.579Z,6.03
2018-09-24T04:55:02.241Z,5.60
2018-09-24T04:55:48.211Z,5.47
2018-09-24T04:56:33.905Z,5.05
2018-09-24T04:57:19.701Z,5.75
2018-09-24T04:58:05.433Z,5.53
2018-09-24T04:58:51.320Z,5.50
2018-09-24T04:59:37.086Z,5.55
2018-09-24T05:00:22.804Z,5.20
2018-09-24T05:01:08.410Z,5.65
2018-09-24T05:01:54.719Z,5.12
2018-09-24T05:02:40.456Z,6.42
2018-09-24T05:03:26.279Z,4.90
2018-09-24T05:04:12.216Z,4.80
2018-09-24T05:04:58.195Z,5.97
2018-09-24T05:05:44.067Z,5.35
2018-09-24T05:06:30.500Z,5.45
2018-09-24T05:07:16.217Z,4.83
2018-09-24T05:08:03.997Z,5.25
2018-09-24T05:08:51.403Z,5.00
2018-09-24T05:09:38.194Z,5.92
2018-09-24T05:10:24.278Z,5.17
2018-09-24T05:11:10.344Z,5.33
2018-09-24T05:11:56.096Z,5.00
2018-09-24T05:12:41.887Z,5.28
2018-09-24T05:13:27.910Z,5.40
2018-09-24T05:14:13.646Z,5.37
2018-09-24T05:14:59.597Z,4.95
2018-09-24T05:15:45.315Z,5.53
2018-09-24T05:16:31.098Z,5.00
2018-09-24T05:17:16.947Z,5.15
2018-09-24T05:18:02.894Z,5.03
2018-09-24T05:18:48.364Z,4.90
2018-09-24T05:19:34.076Z,4.90
2018-09-24T05:20:19.928Z,4.87
2018-09-24T05:21:05.944Z,5.03
2018-09-24T05:21:51.820Z,4.80
2018-09-24T05:22:37.755Z,4.37
2018-09-24T05:23:23.463Z,4.72
2018-09-24T05:24:09.350Z,5.05
2018-09-24T05:24:55.096Z,5.00
2018-09-24T05:25:40.800Z,4.62
2018-09-24T05:26:27.006Z,5.10
2018-09-24T05:27:12.932Z,4.85
2018-09-24T05:27:59.226Z,4.90
2018-09-24T05:28:44.988Z,4.65
2018-09-24T05:29:30.907Z,4.70
2018-09-24T05:30:17.000Z,4.70
2018-09-24T05:31:02.507Z,4.37
2018-09-24T05:31:48.261Z,4.53
2018-09-24T05:32:34.005Z,5.00
2018-09-24T05:33:19.930Z,4.87
2018-09-24T05:34:05.691Z,4.75
2018-09-24T05:34:51.337Z,4.40
2018-09-24T05:35:37.252Z,5.15
2018-09-24T05:36:22.882Z,5.05
2018-09-24T05:37:08.669Z,4.28
2018-09-24T05:37:54.275Z,4.97
2018-09-24T05:38:40.452Z,4.97
2018-09-24T05:39:26.611Z,4.80
2018-09-24T05:40:12.713Z,4.53
2018-09-24T05:40:58.288Z,4.40
2018-09-24T05:41:44.363Z,4.55
2018-09-24T05:42:29.795Z,4.30
2018-09-24T05:43:15.492Z,4.80
2018-09-24T05:44:02.570Z,4.85
2018-09-24T05:44:48.169Z,4.30
2018-09-24T05:45:34.751Z,4.37
2018-09-24T05:46:20.722Z,4.40
2018-09-24T05:47:06.673Z,4.58
2018-09-24T05:47:52.497Z,4.40
2018-09-24T05:48:38.222Z,4.05
2018-09-24T05:49:24.099Z,4.17
2018-09-24T05:50:10.132Z,4.00
2018-09-24T05:50:55.816Z,4.45
2018-09-24T05:51:41.567Z,4.62
2018-09-24T05:52:27.353Z,3.80
2018-09-24T05:53:13.159Z,4.30
2018-09-24T05:53:58.878Z,3.95
2018-09-24T05:54:44.594Z,4.28
2018-09-24T05:55:30.254Z,4.67
2018-09-24T05:56:15.902Z,4.45
2018-09-24T05:57:01.760Z,4.67
2018-09-24T05:57:47.322Z,4.33
2018-09-24T05:58:33.109Z,3.62
2018-09-24T05:59:18.930Z,4.15
2018-09-24T06:00:04.976Z,4.62
2018-09-24T06:00:50.621Z,3.65
2018-09-24T06:01:36.608Z,4.33
2018-09-24T06:07:28.268Z,3.40
2018-09-24T06:08:14.270Z,3.58
2018-09-24T06:09:04.359Z,3.80
2018-09-24T06:09:50.203Z,4.12
2018-09-24T06:10:36.116Z,4.67
2018-09-24T06:11:21.949Z,3.92
2018-09-24T06:12:07.901Z,4.08
2018-09-24T06:12:53.782Z,4.45
2018-09-24T06:13:40.732Z,3.80
2018-09-24T06:14:26.360Z,3.72
2018-09-24T06:15:12.694Z,4.00
2018-09-24T06:15:58.569Z,4.05
2018-09-24T06:16:44.289Z,3.65
2018-09-24T06:17:29.919Z,4.00
2018-09-24T06:18:16.232Z,4.10
2018-09-24T06:19:01.975Z,3.95
2018-09-24T06:19:47.704Z,3.77
2018-09-24T06:20:33.443Z,4.33
2018-09-24T06:21:19.193Z,4.40
2018-09-24T06:22:05.035Z,3.47
2018-09-24T06:22:50.960Z,4.45
2018-09-24T06:23:36.943Z,3.58
2018-09-24T06:24:22.651Z,3.80
2018-09-24T06:25:08.900Z,3.77
2018-09-24T06:25:54.904Z,4.00
2018-09-24T06:26:41.358Z,3.65
2018-09-24T06:27:27.132Z,3.58
2018-09-24T06:28:12.771Z,3.47
2018-09-24T06:28:58.561Z,3.87
2018-09-24T06:29:44.952Z,3.70
2018-09-24T06:30:30.724Z,3.83
2018-09-24T06:31:16.388Z,3.70
2018-09-24T06:32:02.151Z,3.42
2018-09-24T06:32:47.917Z,3.95
2018-09-24T06:33:33.864Z,3.58
2018-09-24T06:34:19.610Z,3.80
2018-09-24T06:35:05.361Z,3.80
2018-09-24T06:35:50.976Z,3.83
2018-09-24T06:36:36.841Z,3.67
2018-09-24T06:37:22.550Z,3.40
2018-09-24T06:38:08.477Z,3.92
2018-09-24T06:38:54.103Z,3.80
2018-09-24T06:39:39.806Z,3.95
2018-09-24T06:40:25.645Z,3.98
2018-09-24T06:41:11.686Z,3.92
2018-09-24T06:41:57.185Z,3.17
2018-09-24T06:42:42.968Z,3.30
2018-09-24T06:43:28.665Z,3.30
2018-09-24T06:44:14.765Z,3.52
2018-09-24T06:45:00.632Z,3.80
2018-09-24T06:45:46.310Z,3.30
2018-09-24T06:46:32.550Z,4.08
2018-09-24T06:47:18.396Z,3.15
2018-09-24T06:48:04.148Z,3.30
2018-09-24T06:48:50.167Z,3.27
2018-09-24T06:49:36.122Z,3.35
2018-09-24T06:50:21.729Z,3.67
2018-09-24T06:51:07.652Z,2.90
2018-09-24T06:51:53.216Z,3.17
2018-09-24T06:52:38.869Z,3.87
2018-09-24T06:53:24.617Z,3.50
2018-09-24T06:54:11.021Z,3.35
2018-09-24T06:54:56.932Z,3.15
2018-09-24T06:55:43.625Z,3.00
2018-09-24T06:56:29.321Z,3.35
2018-09-24T06:57:15.228Z,3.20
2018-09-24T06:58:00.976Z,3.35
2018-09-24T06:58:46.930Z,3.65
2018-09-24T06:59:32.957Z,3.55
2018-09-24T07:00:18.740Z,3.60
2018-09-24T07:06:09.800Z,2.40
2018-09-24T07:06:55.550Z,3.17
2018-09-24T07:07:41.473Z,3.25
2018-09-24T07:08:27.123Z,3.10
2018-09-24T07:09:13.723Z,3.12
2018-09-24T07:09:59.336Z,3.30
2018-09-24T07:10:45.198Z,3.25
2018-09-24T07:11:30.927Z,3.00
2018-09-24T07:12:16.555Z,3.27
2018-09-24T07:13:02.345Z,3.20
2018-09-24T07:13:48.152Z,3.17
2018-09-24T07:14:33.913Z,3.37
2018-09-24T07:15:19.572Z,3.02
2018-09-24T07:16:05.326Z,3.08
2018-09-24T07:16:51.405Z,2.90
2018-09-24T07:17:37.086Z,3.27
2018-09-24T07:18:22.860Z,3.20
2018-09-24T07:19:08.775Z,3.35
2018-09-24T07:19:54.636Z,2.90
2018-09-24T07:20:40.720Z,3.08
2018-09-24T07:21:26.391Z,3.20
2018-09-24T07:22:12.113Z,3.05
2018-09-24T07:22:57.984Z,2.98
2018-09-24T07:23:43.682Z,3.12
2018-09-24T07:24:29.387Z,2.90
2018-09-24T07:25:15.053Z,3.00
2018-09-24T07:26:00.753Z,3.12
2018-09-24T07:26:46.528Z,3.08
2018-09-24T07:27:32.259Z,3.65
2018-09-24T07:28:17.965Z,3.42
2018-09-24T07:29:03.677Z,2.62
2018-09-24T07:29:49.400Z,2.95
2018-09-24T07:30:35.323Z,3.27
2018-09-24T07:31:21.796Z,2.70
2018-09-24T07:32:07.591Z,2.75
2018-09-24T07:32:53.704Z,2.52
2018-09-24T07:33:39.622Z,3.67
2018-09-24T07:34:25.655Z,3.00
2018-09-24T07:35:11.325Z,3.42
2018-09-24T07:35:57.131Z,2.70
2018-09-24T07:36:43.292Z,2.40
2018-09-24T07:37:29.223Z,2.62
2018-09-24T07:38:14.756Z,2.98
2018-09-24T07:39:00.456Z,3.30
2018-09-24T07:39:46.223Z,2.83
2018-09-24T07:40:32.386Z,3.47
2018-09-24T07:41:18.144Z,2.72
2018-09-24T07:42:03.966Z,2.83
2018-09-24T07:42:49.747Z,2.95
2018-09-24T07:43:35.712Z,2.58
2018-09-24T07:44:21.693Z,2.47
2018-09-24T07:45:07.912Z,2.67
2018-09-24T07:45:53.901Z,3.00
2018-09-24T07:46:39.574Z,2.65
2018-09-24T07:47:25.500Z,2.83
2018-09-24T07:48:11.369Z,2.67
2018-09-24T07:48:57.077Z,2.60
2018-09-24T07:49:42.711Z,3.12
2018-09-24T07:50:29.040Z,2.87
2018-09-24T07:51:14.850Z,2.90
2018-09-24T07:52:00.953Z,2.92
2018-09-24T07:52:46.973Z,3.10
2018-09-24T07:53:32.930Z,3.05
2018-09-24T07:54:18.702Z,2.80
2018-09-24T07:55:04.443Z,3.27
2018-09-24T07:55:50.217Z,3.12
2018-09-24T07:56:36.469Z,2.65
2018-09-24T07:57:22.564Z,2.55
2018-09-24T07:58:08.607Z,2.85
2018-09-24T07:58:54.294Z,2.62
2018-09-24T07:59:41.109Z,3.17
2018-09-24T08:00:26.944Z,2.77
2018-09-24T08:01:12.801Z,3.00
2018-09-24T08:01:59.066Z,2.80
2018-09-24T08:02:44.672Z,2.62
2018-09-24T08:03:30.488Z,3.00
2018-09-24T08:04:16.247Z,2.70
2018-09-24T08:05:02.272Z,2.80
2018-09-24T08:05:48.292Z,2.58
2018-09-24T08:06:34.172Z,2.83
2018-09-24T08:07:20.163Z,2.67
2018-09-24T08:08:05.872Z,2.37
2018-09-24T08:08:51.557Z,2.70
2018-09-24T08:09:37.385Z,2.77
2018-09-24T08:10:23.174Z,3.33
2018-09-24T08:11:08.893Z,2.70
2018-09-24T08:11:54.561Z,2.95
2018-09-24T08:12:40.391Z,2.50
2018-09-24T08:13:26.361Z,2.77
2018-09-24T08:14:12.094Z,2.90
2018-09-24T08:14:58.005Z,3.50
2018-09-24T08:15:43.779Z,2.90
2018-09-24T08:16:29.335Z,2.62
2018-09-24T08:17:15.266Z,2.70
2018-09-24T08:18:00.999Z,2.72
2018-09-24T08:18:46.775Z,2.10
2018-09-24T08:19:32.585Z,2.60
2018-09-24T08:20:18.292Z,2.30
2018-09-24T08:21:04.014Z,2.97
2018-09-24T08:21:49.830Z,2.00
2018-09-24T08:22:35.675Z,2.27
2018-09-24T08:23:21.416Z,2.30
2018-09-24T08:24:07.312Z,2.37
2018-09-24T08:24:52.913Z,2.10
2018-09-24T08:25:38.913Z,2.13
2018-09-24T08:26:24.647Z,2.00
2018-09-24T08:27:10.651Z,2.40
2018-09-24T08:27:56.691Z,2.47
2018-09-24T08:28:43.656Z,2.57
2018-09-24T08:29:29.661Z,2.20
2018-09-24T08:30:15.228Z,2.33
2018-09-24T08:31:00.999Z,2.40
2018-09-24T08:31:46.781Z,2.10
2018-09-24T08:32:32.487Z,1.90
2018-09-24T08:33:18.267Z,2.00
2018-09-24T08:34:04.049Z,2.20
2018-09-24T08:34:49.700Z,2.50
2018-09-24T08:35:35.345Z,1.93
2018-09-24T08:36:21.121Z,2.07
2018-09-24T08:37:06.779Z,2.53
2018-09-24T08:37:52.557Z,2.10
2018-09-24T08:38:38.257Z,1.70
2018-09-24T08:39:24.006Z,2.23
2018-09-24T08:40:09.553Z,2.03
2018-09-24T08:40:55.395Z,2.37
2018-09-24T08:41:41.206Z,2.10
2018-09-24T08:42:26.898Z,2.10
2018-09-24T08:43:12.512Z,1.87
2018-09-24T08:43:58.296Z,1.80
2018-09-24T08:44:44.074Z,2.10
2018-09-24T08:45:29.797Z,2.20
2018-09-24T08:46:15.417Z,2.27
2018-09-24T08:47:01.063Z,2.13
2018-09-24T08:47:46.851Z,2.17
2018-09-24T08:48:32.464Z,1.73
2018-09-24T08:49:18.095Z,2.37
2018-09-24T08:50:03.986Z,2.00
2018-09-24T08:50:49.790Z,1.93
2018-09-24T08:51:35.621Z,2.20
2018-09-24T08:52:21.269Z,2.23
2018-09-24T08:53:07.289Z,2.50
2018-09-24T08:53:52.896Z,2.10
2018-09-24T08:54:38.618Z,2.57
2018-09-24T08:55:24.318Z,2.20
2018-09-24T08:56:10.078Z,1.90
2018-09-24T08:56:56.132Z,2.37
2018-09-24T08:57:41.649Z,2.23
2018-09-24T08:58:27.498Z,2.13
2018-09-24T08:59:13.188Z,2.60
2018-09-24T08:59:58.906Z,2.30
2018-09-24T09:00:44.895Z,2.00
2018-09-24T09:01:30.720Z,1.92
2018-09-24T09:02:16.437Z,1.87
2018-09-24T09:03:02.386Z,2.17
2018-09-24T09:03:48.193Z,1.90
2018-09-24T09:04:34.014Z,2.40
2018-09-24T09:05:19.766Z,2.02
2018-09-24T09:06:05.920Z,2.17
2018-09-24T09:06:51.673Z,1.85
2018-09-24T09:07:38.940Z,1.70
2018-09-24T09:08:31.345Z,2.10
2018-09-24T09:09:17.369Z,1.80
2018-09-24T09:10:03.265Z,2.17
2018-09-24T09:10:48.897Z,2.20
2018-09-24T09:11:34.570Z,1.97
2018-09-24T09:12:20.599Z,1.75
2018-09-24T09:13:06.279Z,2.02
2018-09-24T09:13:51.883Z,2.27
2018-09-24T09:14:37.868Z,2.62
2018-09-24T09:15:23.521Z,2.22
2018-09-24T09:16:09.177Z,2.02
2018-09-24T09:16:54.955Z,1.98
2018-09-24T09:17:40.955Z,1.82
2018-09-24T09:18:26.835Z,1.80
2018-09-24T09:19:12.695Z,1.57
2018-09-24T09:19:58.454Z,1.92
2018-09-24T09:20:44.644Z,1.65
2018-09-24T09:21:30.462Z,2.05
2018-09-24T09:22:16.383Z,1.87
2018-09-24T09:23:02.192Z,1.90
2018-09-24T09:23:47.535Z,2.02
2018-09-24T09:24:33.556Z,1.60
2018-09-24T09:25:19.364Z,1.80
2018-09-24T09:26:05.140Z,1.70
2018-09-24T09:26:51.094Z,1.80
2018-09-24T09:27:36.679Z,1.75
2018-09-24T09:28:22.412Z,1.95
2018-09-24T09:29:08.456Z,2.02
2018-09-24T09:29:54.142Z,1.98
2018-09-24T09:30:39.860Z,1.70
2018-09-24T09:31:25.681Z,2.10
2018-09-24T09:32:11.974Z,1.70
2018-09-24T09:32:57.627Z,2.20
2018-09-24T09:33:43.389Z,1.87
2018-09-24T09:34:29.284Z,1.90
2018-09-24T09:35:15.204Z,1.92
2018-09-24T09:36:00.854Z,1.82
2018-09-24T09:36:46.506Z,2.22
2018-09-24T09:37:32.314Z,1.80
2018-09-24T09:38:17.937Z,2.10
2018-09-24T09:39:03.781Z,1.80
2018-09-24T09:39:49.505Z,2.05
2018-09-24T09:40:35.280Z,2.27
2018-09-24T09:41:21.116Z,1.70
2018-09-24T09:42:06.925Z,1.87
2018-09-24T09:42:52.852Z,1.57
2018-09-24T09:43:38.597Z,1.80
2018-09-24T09:44:24.219Z,1.92
2018-09-24T09:45:10.354Z,1.67
2018-09-24T09:45:55.957Z,1.80
2018-09-24T09:46:41.637Z,1.80
2018-09-24T09:47:27.361Z,1.80
2018-09-24T09:48:13.063Z,1.77
2018-09-24T09:48:58.868Z,1.67
2018-09-24T09:49:44.764Z,1.72